Terminal Aerodrome Forecast
Issued by NWS

Home | Current Version | Previous Version | Text Only | Print | Product List | Glossary On
Versions: 1 2 3 4 5 6 7 8 9 10 11 12 13 14 15 16 17 18 19 20
000
FTUS41 KPHI 310201 AAA
TAFPNE
TAF AMD
KPNE 310201Z 3102/3124 12006KT 6SM -SHRA BR BKN035 OVC070
     FM310400 10004KT 3SM SHRA BR OVC025
     FM310700 12004KT 3SM SHRA BR OVC015
     FM311000 VRB02KT 2SM BR OVC007
     FM311400 14003KT 4SM BR OVC015
     FM311600 20006KT P6SM BKN035=

USA.gov is the U.S. government's official web portal to all federal, state and local government web resources and services.